Arcturus, Minnesota
Current Conditions -  °F | °C
As of 2:55 PM on Sunday 21 Dec 2014 (Local Time) from KGPZ Reporting Station
Overcast Overcast  
Wind Chill: -4°   Ceiling: 400
Heat Index:   Visibility: 3mi
Dew Point: -1°   Wind: 9mph
Humidity: 93%   Direction: 140°SE
Pressure: 29.69"   Gusts: NA
Location:  47.3121°N, 93.3823°W
Report Text: KGPZ 212055Z AUTO 14008KT 3SM OVC004 00/M01 A2969 RMK AO1 57020
Loading
Personal Weather Stations






























Interactive Weather Map New forecast layout! Learn more

10-Day Weather Forecast

Advertisements
Track Severe Weather on mobile